Friday, October 31, 2014
06:19 UTC
  |  Log In   |  Register Free
Airport Search:

Talladega Municipal Airport
(KASN)

Talladega Municipal Airport Diagram
No Airport Diagram Available

FAA data valid effective September 18, 2014 - November 13, 2014 (unless otherwise noted).

 
 
 
 
 
 
 
 
 
 
 
 
 
 

Current Aviation Weather for Talladega Municipal Airport (KASN)

The most recent METAR observation for KASN was updated at: 0608
METAR Summary (Translated METAR)
KASN
310555Z AUTO 00000KT 10SM CLR 06/05 A3002 RMK AO2 T00610050 10137 20060 402000047
KANB
310553Z AUTO 24003KT 10SM CLR 04/03 A3001 RMK AO2 SLP165 T00390028 10100 20039 401940039 58005
(9.7 nm NE from KASN)
KGAD
310555Z 25004KT 10SM CLR 04/02 A3001 RMK AO1 10090 20040 57007
(24.3 nm NW from KASN)
TAF Summary (Translated TAF)
KASN
(9.7 nm SW from KANB)
221726Z 2218/2318 02006KT P6SM SKC FM230000 00000KT P6SM SKC
KANB
301725Z 3018/3118 36007G13KT P6SM SKC FM302300 35003KT P6SM SKC
  Airport Weather Conditions for KASN

 Current Weather at ASN
43° F
Fair
North winds at 0.0 mph
ASN NOAA Radar

Pressure: 30.02 in
Humidity: 93%
Wind: Calm
Dew Point: 41.0°F
Visibility: 10.00 mi


Airport Weather Forecast for KASN

Translated METAR and TAF for KANB
Translated METAR for KANB (0614 UTC 31 October 2014)
found at http://aviationweather.gov/adds/metars/
 
METAR text: KANB 310553Z AUTO 24003KT 10SM CLR 04/03 A3001 RMK AO2 SLP165 T00390028 10100 20039 401940039 58005
Conditions at: KANB (ANNISTON , AL, US) observed 0553 UTC 31 October 2014
Temperature: 3.9°C (39°F)
Dewpoint: 2.8°C (37°F) [RH = 93%]
Pressure (altimeter): 30.01 inches Hg (1016.3 mb)
[Sea-level pressure: 1016.5 mb]
Winds: from the WSW (240 degrees) at 3 MPH (3 knots; 1.6 m/s)
Visibility: 10 or more miles (16+ km)
Ceiling: at least 12,000 feet AGL
Clouds: sky clear below 12,000 feet AGL
Weather: automated observation with no human augmentation;
there may or may not be significant weather present at this time
Translated TAF for KANB
Forecast for: KANB (ANNISTON , AL, US)
TAF Text: KANB 310520Z 3106/0106 35003KT P6SM SKC
Forecast period: 0600 to 1800 UTC 31 October 2014
Forecast type: FROM: standard forecast or significant change
Winds: from the N (350 degrees) at 3 MPH (3 knots; 1.6 m/s)
Visibility: 6 or more miles (10+ km)
Clouds: clear skies
Weather: no significant weather forecast for this period
TAF Text: FM311800 29007KT P6SM SCT250
Forecast period: 1800 to 2100 UTC 31 October 2014
Forecast type: FROM: standard forecast or significant change
Winds: from the WNW (290 degrees) at 8 MPH (7 knots; 3.6 m/s)
Visibility: 6 or more miles (10+ km)
Clouds: scattered clouds at 25000 feet AGL
Weather: no significant weather forecast for this period
TAF Text: FM312100 31016KT P6SM OVC050
Forecast period: 2100 UTC 31 October 2014 to 0300 UTC 01 November 2014
Forecast type: FROM: standard forecast or significant change
Winds: from the NW (310 degrees) at 18 MPH (16 knots; 8.3 m/s)
Visibility: 6 or more miles (10+ km)
Ceiling: 5000 feet AGL
Clouds: overcast cloud deck at 5000 feet AGL
Weather: no significant weather forecast for this period
TAF Text: FM010300 33010KT P6SM SKC
Forecast period: 0300 to 0600 UTC 01 November 2014
Forecast type: FROM: standard forecast or significant change
Winds: from the NNW (330 degrees) at 12 MPH (10 knots; 5.2 m/s)
Visibility: 6 or more miles (10+ km)
Clouds: clear skies
Weather: no significant weather forecast for this period

Find All Airport Services Find A Hotel Find A Rental Car Find A Golf Course Find A Restaurant $100 Hamburger



FBO's on the Field
FBO Company Facility Photos Services Transportation Aviation Fuel Prices: Prices include tax
Catering Weather Repair Courtesy Rental Type 100LL JetA JetA+ MOGAS 8087
 
Talladega Municipal

This FBO has not yet been rated
FS:Texaco
Last Updated: Oct-27
Login to update fuel prices
SS:
Contact Talladega MunicipalMore FBO Information
 
Add another FBO Facility Photos Catering Weather Repair Courtesy Rental Type 100LL JetA JetA+ MOGAS 8087
Services Transportation Aviation Fuel Prices: Prices include tax


model-print
model-print
model-print
model-print